sensor_id;sensor_type;location;lat;lon;timestamp;P1;durP1;ratioP1;P2;durP2;ratioP2
52023;SDS011;38038;45.922;13.604;2024-02-16T00:00:16;30.43;;;27.80;;
52023;SDS011;38038;45.922;13.604;2024-02-16T00:02:43;29.13;;;26.57;;
52023;SDS011;38038;45.922;13.604;2024-02-16T00:05:11;26.33;;;24.03;;
52023;SDS011;38038;45.922;13.604;2024-02-16T00:07:40;25.60;;;22.90;;
52023;SDS011;38038;45.922;13.604;2024-02-16T00:10:06;23.13;;;21.13;;
52023;SDS011;38038;45.922;13.604;2024-02-16T00:12:33;29.90;;;22.07;;
52023;SDS011;38038;45.922;13.604;2024-02-16T00:14:59;24.40;;;22.20;;
52023;SDS011;38038;45.922;13.604;2024-02-16T00:17:25;21.73;;;19.87;;
52023;SDS011;38038;45.922;13.604;2024-02-16T00:19:54;21.57;;;19.60;;
52023;SDS011;38038;45.922;13.604;2024-02-16T00:22:20;21.47;;;19.43;;
52023;SDS011;38038;45.922;13.604;2024-02-16T00:24:46;22.10;;;20.17;;
52023;SDS011;38038;45.922;13.604;2024-02-16T00:27:13;25.10;;;23.00;;
52023;SDS011;38038;45.922;13.604;2024-02-16T00:29:39;22.90;;;20.80;;
52023;SDS011;38038;45.922;13.604;2024-02-16T00:32:05;21.47;;;19.67;;
52023;SDS011;38038;45.922;13.604;2024-02-16T00:34:32;23.93;;;22.00;;
52023;SDS011;38038;45.922;13.604;2024-02-16T00:37:01;23.83;;;21.83;;
52023;SDS011;38038;45.922;13.604;2024-02-16T00:39:30;24.90;;;22.60;;
52023;SDS011;38038;45.922;13.604;2024-02-16T00:41:55;22.80;;;21.00;;
52023;SDS011;38038;45.922;13.604;2024-02-16T00:44:21;23.90;;;21.83;;
52023;SDS011;38038;45.922;13.604;2024-02-16T00:46:47;22.87;;;20.97;;
52023;SDS011;38038;45.922;13.604;2024-02-16T00:49:13;22.30;;;20.33;;
52023;SDS011;38038;45.922;13.604;2024-02-16T00:51:39;25.03;;;22.50;;
52023;SDS011;38038;45.922;13.604;2024-02-16T00:54:05;25.80;;;23.57;;
52023;SDS011;38038;45.922;13.604;2024-02-16T00:56:32;26.27;;;23.97;;
52023;SDS011;38038;45.922;13.604;2024-02-16T00:58:58;26.23;;;24.23;;
52023;SDS011;38038;45.922;13.604;2024-02-16T01:01:23;23.77;;;21.67;;
52023;SDS011;38038;45.922;13.604;2024-02-16T01:03:51;25.53;;;23.43;;
52023;SDS011;38038;45.922;13.604;2024-02-16T01:06:17;23.60;;;21.23;;
52023;SDS011;38038;45.922;13.604;2024-02-16T01:08:43;24.70;;;22.50;;
52023;SDS011;38038;45.922;13.604;2024-02-16T01:11:09;24.27;;;21.73;;
52023;SDS011;38038;45.922;13.604;2024-02-16T01:13:35;24.23;;;22.23;;
52023;SDS011;38038;45.922;13.604;2024-02-16T01:16:02;24.33;;;22.23;;
52023;SDS011;38038;45.922;13.604;2024-02-16T01:18:28;25.40;;;23.10;;
52023;SDS011;38038;45.922;13.604;2024-02-16T01:20:54;25.20;;;23.00;;
52023;SDS011;38038;45.922;13.604;2024-02-16T01:23:20;26.13;;;23.73;;
52023;SDS011;38038;45.922;13.604;2024-02-16T01:25:46;24.87;;;22.67;;
52023;SDS011;38038;45.922;13.604;2024-02-16T01:28:12;24.10;;;22.07;;
52023;SDS011;38038;45.922;13.604;2024-02-16T01:30:38;24.00;;;21.80;;
52023;SDS011;38038;45.922;13.604;2024-02-16T01:33:05;24.60;;;22.40;;
52023;SDS011;38038;45.922;13.604;2024-02-16T01:35:32;23.50;;;21.17;;
52023;SDS011;38038;45.922;13.604;2024-02-16T01:37:58;24.80;;;22.70;;
52023;SDS011;38038;45.922;13.604;2024-02-16T01:40:24;26.73;;;24.27;;
52023;SDS011;38038;45.922;13.604;2024-02-16T01:42:51;26.57;;;24.40;;
52023;SDS011;38038;45.922;13.604;2024-02-16T01:45:20;29.70;;;27.37;;
52023;SDS011;38038;45.922;13.604;2024-02-16T01:47:47;26.93;;;24.73;;
52023;SDS011;38038;45.922;13.604;2024-02-16T01:50:15;22.93;;;21.13;;
52023;SDS011;38038;45.922;13.604;2024-02-16T01:52:42;23.87;;;21.87;;
52023;SDS011;38038;45.922;13.604;2024-02-16T01:55:09;22.40;;;20.37;;
52023;SDS011;38038;45.922;13.604;2024-02-16T01:57:44;22.63;;;20.70;;
52023;SDS011;38038;45.922;13.604;2024-02-16T02:00:11;23.23;;;21.17;;
52023;SDS011;38038;45.922;13.604;2024-02-16T02:02:39;28.87;;;26.13;;
52023;SDS011;38038;45.922;13.604;2024-02-16T02:05:06;25.77;;;23.67;;
52023;SDS011;38038;45.922;13.604;2024-02-16T02:07:32;21.67;;;19.87;;
52023;SDS011;38038;45.922;13.604;2024-02-16T02:09:58;23.13;;;21.10;;
52023;SDS011;38038;45.922;13.604;2024-02-16T02:12:24;26.77;;;24.67;;
52023;SDS011;38038;45.922;13.604;2024-02-16T02:14:50;27.80;;;25.47;;
52023;SDS011;38038;45.922;13.604;2024-02-16T02:17:18;24.43;;;22.33;;
52023;SDS011;38038;45.922;13.604;2024-02-16T02:19:48;22.80;;;20.63;;
52023;SDS011;38038;45.922;13.604;2024-02-16T02:22:17;22.50;;;20.30;;
52023;SDS011;38038;45.922;13.604;2024-02-16T02:24:44;21.63;;;19.73;;
52023;SDS011;38038;45.922;13.604;2024-02-16T02:27:14;24.17;;;21.77;;
52023;SDS011;38038;45.922;13.604;2024-02-16T02:29:40;23.00;;;20.97;;
52023;SDS011;38038;45.922;13.604;2024-02-16T02:32:06;24.30;;;22.20;;
52023;SDS011;38038;45.922;13.604;2024-02-16T02:34:33;25.30;;;22.93;;
52023;SDS011;38038;45.922;13.604;2024-02-16T02:36:59;25.23;;;22.93;;
52023;SDS011;38038;45.922;13.604;2024-02-16T02:39:25;23.63;;;21.60;;
52023;SDS011;38038;45.922;13.604;2024-02-16T02:41:51;24.87;;;22.50;;
52023;SDS011;38038;45.922;13.604;2024-02-16T02:44:17;25.97;;;23.57;;
52023;SDS011;38038;45.922;13.604;2024-02-16T02:46:44;26.17;;;23.73;;
52023;SDS011;38038;45.922;13.604;2024-02-16T02:49:10;28.33;;;25.97;;
52023;SDS011;38038;45.922;13.604;2024-02-16T02:51:35;25.17;;;23.00;;
52023;SDS011;38038;45.922;13.604;2024-02-16T02:54:01;24.63;;;22.30;;
52023;SDS011;38038;45.922;13.604;2024-02-16T02:56:27;24.87;;;22.83;;
52023;SDS011;38038;45.922;13.604;2024-02-16T02:58:52;24.33;;;22.03;;
52023;SDS011;38038;45.922;13.604;2024-02-16T03:01:18;25.97;;;23.57;;
52023;SDS011;38038;45.922;13.604;2024-02-16T03:03:47;24.33;;;22.00;;
52023;SDS011;38038;45.922;13.604;2024-02-16T03:06:17;25.40;;;23.03;;
52023;SDS011;38038;45.922;13.604;2024-02-16T03:08:43;25.53;;;23.33;;
52023;SDS011;38038;45.922;13.604;2024-02-16T03:11:09;27.77;;;25.17;;
52023;SDS011;38038;45.922;13.604;2024-02-16T03:13:35;24.37;;;22.30;;
52023;SDS011;38038;45.922;13.604;2024-02-16T03:16:01;26.70;;;24.40;;
52023;SDS011;38038;45.922;13.604;2024-02-16T03:18:31;25.73;;;23.47;;
52023;SDS011;38038;45.922;13.604;2024-02-16T03:20:59;24.77;;;22.50;;
52023;SDS011;38038;45.922;13.604;2024-02-16T03:23:25;24.27;;;21.93;;
52023;SDS011;38038;45.922;13.604;2024-02-16T03:25:51;26.57;;;24.37;;
52023;SDS011;38038;45.922;13.604;2024-02-16T03:28:16;25.37;;;23.07;;
52023;SDS011;38038;45.922;13.604;2024-02-16T03:30:43;26.60;;;24.37;;
52023;SDS011;38038;45.922;13.604;2024-02-16T03:33:09;24.37;;;22.30;;
52023;SDS011;38038;45.922;13.604;2024-02-16T03:35:35;25.13;;;23.03;;
52023;SDS011;38038;45.922;13.604;2024-02-16T03:38:04;23.67;;;21.87;;
52023;SDS011;38038;45.922;13.604;2024-02-16T03:40:30;25.37;;;23.03;;
52023;SDS011;38038;45.922;13.604;2024-02-16T03:42:56;24.37;;;22.37;;
52023;SDS011;38038;45.922;13.604;2024-02-16T03:45:23;23.07;;;20.80;;
52023;SDS011;38038;45.922;13.604;2024-02-16T03:47:49;22.97;;;20.93;;
52023;SDS011;38038;45.922;13.604;2024-02-16T03:50:17;22.43;;;20.50;;
52023;SDS011;38038;45.922;13.604;2024-02-16T03:52:43;23.63;;;21.63;;
52023;SDS011;38038;45.922;13.604;2024-02-16T03:55:09;26.23;;;24.00;;
52023;SDS011;38038;45.922;13.604;2024-02-16T03:57:35;26.07;;;23.50;;
52023;SDS011;38038;45.922;13.604;2024-02-16T04:00:02;24.20;;;21.83;;
52023;SDS011;38038;45.922;13.604;2024-02-16T04:02:30;22.93;;;20.83;;
52023;SDS011;38038;45.922;13.604;2024-02-16T04:04:56;24.63;;;22.40;;
52023;SDS011;38038;45.922;13.604;2024-02-16T04:07:22;24.73;;;22.63;;
52023;SDS011;38038;45.922;13.604;2024-02-16T04:09:48;24.90;;;22.70;;
52023;SDS011;38038;45.922;13.604;2024-02-16T04:12:14;26.60;;;24.10;;
52023;SDS011;38038;45.922;13.604;2024-02-16T04:14:40;24.40;;;22.13;;
52023;SDS011;38038;45.922;13.604;2024-02-16T04:17:07;22.07;;;20.17;;
52023;SDS011;38038;45.922;13.604;2024-02-16T04:19:32;22.27;;;20.37;;
52023;SDS011;38038;45.922;13.604;2024-02-16T04:21:58;22.93;;;21.00;;
52023;SDS011;38038;45.922;13.604;2024-02-16T04:24:24;23.57;;;21.40;;
52023;SDS011;38038;45.922;13.604;2024-02-16T04:26:49;23.67;;;21.57;;
52023;SDS011;38038;45.922;13.604;2024-02-16T04:29:15;24.60;;;22.50;;
52023;SDS011;38038;45.922;13.604;2024-02-16T04:31:41;22.60;;;20.60;;
52023;SDS011;38038;45.922;13.604;2024-02-16T04:34:10;21.63;;;19.67;;
52023;SDS011;38038;45.922;13.604;2024-02-16T04:36:36;22.97;;;20.90;;
52023;SDS011;38038;45.922;13.604;2024-02-16T04:39:02;23.33;;;21.07;;
52023;SDS011;38038;45.922;13.604;2024-02-16T04:41:28;23.33;;;21.17;;
52023;SDS011;38038;45.922;13.604;2024-02-16T04:43:54;23.00;;;21.10;;
52023;SDS011;38038;45.922;13.604;2024-02-16T04:46:21;25.57;;;23.27;;
52023;SDS011;38038;45.922;13.604;2024-02-16T04:48:47;24.93;;;22.93;;
52023;SDS011;38038;45.922;13.604;2024-02-16T04:51:12;26.63;;;24.23;;
52023;SDS011;38038;45.922;13.604;2024-02-16T04:53:38;28.90;;;26.50;;
52023;SDS011;38038;45.922;13.604;2024-02-16T04:56:04;25.40;;;23.17;;
52023;SDS011;38038;45.922;13.604;2024-02-16T04:58:30;25.03;;;22.53;;
52023;SDS011;38038;45.922;13.604;2024-02-16T05:00:56;26.40;;;24.03;;
52023;SDS011;38038;45.922;13.604;2024-02-16T05:03:23;30.33;;;27.67;;
52023;SDS011;38038;45.922;13.604;2024-02-16T05:05:49;28.47;;;26.10;;
52023;SDS011;38038;45.922;13.604;2024-02-16T05:08:14;31.43;;;28.67;;
52023;SDS011;38038;45.922;13.604;2024-02-16T05:10:40;30.43;;;27.87;;
52023;SDS011;38038;45.922;13.604;2024-02-16T05:13:06;25.93;;;23.80;;
52023;SDS011;38038;45.922;13.604;2024-02-16T05:15:32;26.63;;;24.27;;
52023;SDS011;38038;45.922;13.604;2024-02-16T05:17:58;26.27;;;24.17;;
52023;SDS011;38038;45.922;13.604;2024-02-16T05:20:23;23.90;;;21.60;;
52023;SDS011;38038;45.922;13.604;2024-02-16T05:22:50;23.10;;;21.00;;
52023;SDS011;38038;45.922;13.604;2024-02-16T05:25:16;26.03;;;23.50;;
52023;SDS011;38038;45.922;13.604;2024-02-16T05:27:45;23.60;;;21.50;;
52023;SDS011;38038;45.922;13.604;2024-02-16T05:30:15;24.53;;;22.47;;
52023;SDS011;38038;45.922;13.604;2024-02-16T05:32:44;25.03;;;22.73;;
52023;SDS011;38038;45.922;13.604;2024-02-16T05:35:10;23.20;;;20.97;;
52023;SDS011;38038;45.922;13.604;2024-02-16T05:37:45;24.70;;;22.47;;
52023;SDS011;38038;45.922;13.604;2024-02-16T05:40:16;22.65;;;20.60;;
52023;SDS011;38038;45.922;13.604;2024-02-16T05:42:56;23.13;;;20.87;;
52023;SDS011;38038;45.922;13.604;2024-02-16T05:45:25;23.63;;;21.43;;
52023;SDS011;38038;45.922;13.604;2024-02-16T05:47:54;27.03;;;24.67;;
52023;SDS011;38038;45.922;13.604;2024-02-16T05:50:20;25.13;;;22.93;;
52023;SDS011;38038;45.922;13.604;2024-02-16T05:52:47;27.07;;;24.57;;
52023;SDS011;38038;45.922;13.604;2024-02-16T05:55:13;23.93;;;21.67;;
52023;SDS011;38038;45.922;13.604;2024-02-16T05:57:39;24.57;;;22.17;;
52023;SDS011;38038;45.922;13.604;2024-02-16T06:00:06;24.03;;;22.07;;
52023;SDS011;38038;45.922;13.604;2024-02-16T06:02:33;40.00;;;37.07;;
52023;SDS011;38038;45.922;13.604;2024-02-16T06:05:00;22.60;;;20.43;;
52023;SDS011;38038;45.922;13.604;2024-02-16T06:07:29;23.57;;;19.20;;
52023;SDS011;38038;45.922;13.604;2024-02-16T06:09:55;20.70;;;18.80;;
52023;SDS011;38038;45.922;13.604;2024-02-16T06:12:22;20.53;;;18.43;;
52023;SDS011;38038;45.922;13.604;2024-02-16T06:14:48;20.10;;;18.20;;
52023;SDS011;38038;45.922;13.604;2024-02-16T06:17:14;21.03;;;19.10;;
52023;SDS011;38038;45.922;13.604;2024-02-16T06:19:41;22.50;;;20.43;;
52023;SDS011;38038;45.922;13.604;2024-02-16T06:22:07;25.83;;;23.43;;
52023;SDS011;38038;45.922;13.604;2024-02-16T06:24:33;25.47;;;22.87;;
52023;SDS011;38038;45.922;13.604;2024-02-16T06:27:00;25.13;;;22.13;;
52023;SDS011;38038;45.922;13.604;2024-02-16T06:29:25;28.77;;;26.27;;
52023;SDS011;38038;45.922;13.604;2024-02-16T06:31:51;28.03;;;25.53;;
52023;SDS011;38038;45.922;13.604;2024-02-16T06:34:17;29.77;;;27.50;;
52023;SDS011;38038;45.922;13.604;2024-02-16T06:36:44;28.63;;;22.77;;
52023;SDS011;38038;45.922;13.604;2024-02-16T06:39:10;22.93;;;20.70;;
52023;SDS011;38038;45.922;13.604;2024-02-16T06:41:36;26.00;;;23.80;;
52023;SDS011;38038;45.922;13.604;2024-02-16T06:44:02;30.57;;;27.30;;
52023;SDS011;38038;45.922;13.604;2024-02-16T06:46:31;27.27;;;24.53;;
52023;SDS011;38038;45.922;13.604;2024-02-16T06:48:57;28.37;;;23.93;;
52023;SDS011;38038;45.922;13.604;2024-02-16T06:51:23;25.87;;;23.33;;
52023;SDS011;38038;45.922;13.604;2024-02-16T06:53:49;25.80;;;22.17;;
52023;SDS011;38038;45.922;13.604;2024-02-16T06:56:16;24.37;;;21.20;;
52023;SDS011;38038;45.922;13.604;2024-02-16T06:58:43;28.70;;;23.67;;
52023;SDS011;38038;45.922;13.604;2024-02-16T07:01:09;24.30;;;20.73;;
52023;SDS011;38038;45.922;13.604;2024-02-16T07:03:35;24.07;;;21.87;;
52023;SDS011;38038;45.922;13.604;2024-02-16T07:06:04;27.07;;;24.23;;
52023;SDS011;38038;45.922;13.604;2024-02-16T07:08:32;24.20;;;22.20;;
52023;SDS011;38038;45.922;13.604;2024-02-16T07:10:58;25.00;;;22.63;;
52023;SDS011;38038;45.922;13.604;2024-02-16T07:13:24;27.37;;;24.60;;
52023;SDS011;38038;45.922;13.604;2024-02-16T07:15:50;28.03;;;25.00;;
52023;SDS011;38038;45.922;13.604;2024-02-16T07:18:16;30.70;;;27.63;;
52023;SDS011;38038;45.922;13.604;2024-02-16T07:20:42;32.83;;;28.70;;
52023;SDS011;38038;45.922;13.604;2024-02-16T07:23:07;30.23;;;27.67;;
52023;SDS011;38038;45.922;13.604;2024-02-16T07:25:34;27.03;;;24.17;;
52023;SDS011;38038;45.922;13.604;2024-02-16T07:28:00;28.30;;;24.17;;
52023;SDS011;38038;45.922;13.604;2024-02-16T07:30:26;26.50;;;24.10;;
52023;SDS011;38038;45.922;13.604;2024-02-16T07:32:51;25.37;;;23.17;;
52023;SDS011;38038;45.922;13.604;2024-02-16T07:35:18;25.33;;;23.17;;
52023;SDS011;38038;45.922;13.604;2024-02-16T07:37:44;32.13;;;26.97;;
52023;SDS011;38038;45.922;13.604;2024-02-16T07:40:09;29.10;;;26.73;;
52023;SDS011;38038;45.922;13.604;2024-02-16T07:42:39;22.80;;;20.40;;
52023;SDS011;38038;45.922;13.604;2024-02-16T07:45:08;21.83;;;20.07;;
52023;SDS011;38038;45.922;13.604;2024-02-16T07:47:34;23.83;;;21.77;;
52023;SDS011;38038;45.922;13.604;2024-02-16T07:50:00;23.63;;;21.53;;
52023;SDS011;38038;45.922;13.604;2024-02-16T07:52:26;24.00;;;22.00;;
52023;SDS011;38038;45.922;13.604;2024-02-16T07:54:52;26.77;;;24.67;;
52023;SDS011;38038;45.922;13.604;2024-02-16T07:57:17;29.17;;;26.77;;
52023;SDS011;38038;45.922;13.604;2024-02-16T07:59:43;29.13;;;26.87;;
52023;SDS011;38038;45.922;13.604;2024-02-16T08:02:09;30.03;;;27.73;;
52023;SDS011;38038;45.922;13.604;2024-02-16T08:04:40;30.27;;;27.67;;
52023;SDS011;38038;45.922;13.604;2024-02-16T08:07:06;28.20;;;25.20;;
52023;SDS011;38038;45.922;13.604;2024-02-16T08:09:33;23.10;;;21.10;;
52023;SDS011;38038;45.922;13.604;2024-02-16T08:11:58;23.03;;;20.93;;
52023;SDS011;38038;45.922;13.604;2024-02-16T08:14:25;23.23;;;21.23;;
52023;SDS011;38038;45.922;13.604;2024-02-16T08:16:50;20.10;;;18.20;;
52023;SDS011;38038;45.922;13.604;2024-02-16T08:19:16;21.80;;;20.07;;
52023;SDS011;38038;45.922;13.604;2024-02-16T08:21:42;20.30;;;18.53;;
52023;SDS011;38038;45.922;13.604;2024-02-16T08:24:07;20.77;;;19.37;;
52023;SDS011;38038;45.922;13.604;2024-02-16T08:26:33;17.10;;;15.90;;
52023;SDS011;38038;45.922;13.604;2024-02-16T08:28:59;15.90;;;14.67;;
52023;SDS011;38038;45.922;13.604;2024-02-16T08:31:24;15.40;;;14.30;;
52023;SDS011;38038;45.922;13.604;2024-02-16T08:33:50;16.00;;;14.90;;
52023;SDS011;38038;45.922;13.604;2024-02-16T08:36:16;15.80;;;14.60;;
52023;SDS011;38038;45.922;13.604;2024-02-16T08:38:41;14.80;;;13.60;;
52023;SDS011;38038;45.922;13.604;2024-02-16T08:41:07;14.40;;;13.30;;
52023;SDS011;38038;45.922;13.604;2024-02-16T08:43:33;14.10;;;13.10;;
52023;SDS011;38038;45.922;13.604;2024-02-16T08:45:59;19.10;;;17.70;;
52023;SDS011;38038;45.922;13.604;2024-02-16T08:48:25;17.93;;;16.40;;
52023;SDS011;38038;45.922;13.604;2024-02-16T08:50:51;17.47;;;16.27;;
52023;SDS011;38038;45.922;13.604;2024-02-16T08:53:16;13.97;;;13.00;;
52023;SDS011;38038;45.922;13.604;2024-02-16T08:55:42;17.20;;;16.00;;
52023;SDS011;38038;45.922;13.604;2024-02-16T08:58:08;20.43;;;18.80;;
52023;SDS011;38038;45.922;13.604;2024-02-16T09:00:34;24.40;;;22.67;;
52023;SDS011;38038;45.922;13.604;2024-02-16T09:03:00;21.27;;;19.83;;
52023;SDS011;38038;45.922;13.604;2024-02-16T09:05:28;17.40;;;16.17;;
52023;SDS011;38038;45.922;13.604;2024-02-16T09:07:54;14.10;;;12.80;;
52023;SDS011;38038;45.922;13.604;2024-02-16T09:10:20;12.90;;;11.97;;
52023;SDS011;38038;45.922;13.604;2024-02-16T09:12:45;12.33;;;11.43;;
52023;SDS011;38038;45.922;13.604;2024-02-16T09:15:11;13.83;;;12.60;;
52023;SDS011;38038;45.922;13.604;2024-02-16T09:17:37;12.23;;;11.30;;
52023;SDS011;38038;45.922;13.604;2024-02-16T09:20:05;13.33;;;12.37;;
52023;SDS011;38038;45.922;13.604;2024-02-16T09:22:33;12.87;;;11.87;;
52023;SDS011;38038;45.922;13.604;2024-02-16T09:24:58;13.43;;;12.37;;
52023;SDS011;38038;45.922;13.604;2024-02-16T09:27:25;12.20;;;11.30;;
52023;SDS011;38038;45.922;13.604;2024-02-16T09:29:51;11.93;;;11.03;;
52023;SDS011;38038;45.922;13.604;2024-02-16T09:32:17;12.27;;;11.27;;
52023;SDS011;38038;45.922;13.604;2024-02-16T09:34:43;17.97;;;10.93;;
52023;SDS011;38038;45.922;13.604;2024-02-16T09:37:08;11.80;;;10.83;;
52023;SDS011;38038;45.922;13.604;2024-02-16T09:39:34;12.33;;;11.33;;
52023;SDS011;38038;45.922;13.604;2024-02-16T09:42:00;12.80;;;11.77;;
52023;SDS011;38038;45.922;13.604;2024-02-16T09:44:26;11.30;;;10.40;;
52023;SDS011;38038;45.922;13.604;2024-02-16T09:46:53;12.00;;;11.03;;
52023;SDS011;38038;45.922;13.604;2024-02-16T09:49:20;15.27;;;10.97;;
52023;SDS011;38038;45.922;13.604;2024-02-16T09:51:46;11.70;;;10.53;;
52023;SDS011;38038;45.922;13.604;2024-02-16T09:54:12;11.00;;;10.07;;
52023;SDS011;38038;45.922;13.604;2024-02-16T09:56:37;12.07;;;11.27;;
52023;SDS011;38038;45.922;13.604;2024-02-16T09:59:03;12.23;;;11.13;;
52023;SDS011;38038;45.922;13.604;2024-02-16T10:01:29;11.70;;;10.63;;
52023;SDS011;38038;45.922;13.604;2024-02-16T10:03:59;12.83;;;11.90;;
52023;SDS011;38038;45.922;13.604;2024-02-16T10:06:45;13.93;;;10.33;;
52023;SDS011;38038;45.922;13.604;2024-02-16T10:09:23;12.90;;;12.00;;
52023;SDS011;38038;45.922;13.604;2024-02-16T10:11:49;14.77;;;13.57;;
52023;SDS011;38038;45.922;13.604;2024-02-16T10:14:16;15.30;;;14.13;;
52023;SDS011;38038;45.922;13.604;2024-02-16T10:16:44;12.10;;;11.30;;
52023;SDS011;38038;45.922;13.604;2024-02-16T10:19:11;15.20;;;13.77;;
52023;SDS011;38038;45.922;13.604;2024-02-16T10:21:37;9.07;;;8.47;;
52023;SDS011;38038;45.922;13.604;2024-02-16T10:24:07;9.13;;;8.03;;
52023;SDS011;38038;45.922;13.604;2024-02-16T10:26:38;8.82;;;8.18;;
52023;SDS011;38038;45.922;13.604;2024-02-16T10:29:05;9.00;;;8.40;;
52023;SDS011;38038;45.922;13.604;2024-02-16T10:31:33;10.00;;;9.30;;
52023;SDS011;38038;45.922;13.604;2024-02-16T10:34:03;8.93;;;8.17;;
52023;SDS011;38038;45.922;13.604;2024-02-16T10:36:37;10.80;;;8.83;;
52023;SDS011;38038;45.922;13.604;2024-02-16T10:39:04;10.33;;;9.50;;
52023;SDS011;38038;45.922;13.604;2024-02-16T10:41:40;11.63;;;10.83;;
52023;SDS011;38038;45.922;13.604;2024-02-16T10:44:06;14.17;;;13.17;;
52023;SDS011;38038;45.922;13.604;2024-02-16T10:46:33;13.07;;;12.17;;
52023;SDS011;38038;45.922;13.604;2024-02-16T10:48:59;28.83;;;27.23;;
52023;SDS011;38038;45.922;13.604;2024-02-16T10:51:47;11.97;;;11.17;;
52023;SDS011;38038;45.922;13.604;2024-02-16T10:54:15;11.20;;;10.13;;
52023;SDS011;38038;45.922;13.604;2024-02-16T10:56:43;9.77;;;9.07;;
52023;SDS011;38038;45.922;13.604;2024-02-16T10:59:09;10.77;;;10.07;;
52023;SDS011;38038;45.922;13.604;2024-02-16T11:01:39;23.40;;;21.90;;
52023;SDS011;38038;45.922;13.604;2024-02-16T11:04:07;56.40;;;53.57;;
52023;SDS011;38038;45.922;13.604;2024-02-16T11:11:55;10.23;;;9.53;;
52023;SDS011;38038;45.922;13.604;2024-02-16T11:14:33;9.70;;;9.03;;
52023;SDS011;38038;45.922;13.604;2024-02-16T11:17:10;9.53;;;8.83;;
52023;SDS011;38038;45.922;13.604;2024-02-16T11:19:46;10.27;;;9.47;;
52023;SDS011;38038;45.922;13.604;2024-02-16T11:22:18;10.53;;;9.80;;
52023;SDS011;38038;45.922;13.604;2024-02-16T11:24:45;13.50;;;12.60;;
52023;SDS011;38038;45.922;13.604;2024-02-16T11:27:12;14.07;;;13.07;;
52023;SDS011;38038;45.922;13.604;2024-02-16T11:29:40;15.37;;;14.43;;
52023;SDS011;38038;45.922;13.604;2024-02-16T11:32:07;14.40;;;13.20;;
52023;SDS011;38038;45.922;13.604;2024-02-16T11:34:33;12.90;;;11.90;;
52023;SDS011;38038;45.922;13.604;2024-02-16T11:37:00;13.00;;;12.20;;
52023;SDS011;38038;45.922;13.604;2024-02-16T11:39:27;13.53;;;12.53;;
52023;SDS011;38038;45.922;13.604;2024-02-16T11:42:01;16.50;;;15.40;;
52023;SDS011;38038;45.922;13.604;2024-02-16T11:44:32;13.70;;;12.63;;
52023;SDS011;38038;45.922;13.604;2024-02-16T11:46:59;14.13;;;12.97;;
52023;SDS011;38038;45.922;13.604;2024-02-16T11:49:26;11.67;;;10.83;;
52023;SDS011;38038;45.922;13.604;2024-02-16T11:51:53;15.07;;;14.00;;
52023;SDS011;38038;45.922;13.604;2024-02-16T11:54:18;13.30;;;12.33;;
52023;SDS011;38038;45.922;13.604;2024-02-16T11:56:47;15.20;;;14.20;;
52023;SDS011;38038;45.922;13.604;2024-02-16T11:59:16;14.97;;;13.97;;
52023;SDS011;38038;45.922;13.604;2024-02-16T12:01:49;18.50;;;17.50;;
52023;SDS011;38038;45.922;13.604;2024-02-16T12:04:37;12.93;;;12.03;;
52023;SDS011;38038;45.922;13.604;2024-02-16T12:07:03;12.20;;;11.40;;
52023;SDS011;38038;45.922;13.604;2024-02-16T12:09:28;12.03;;;11.17;;
52023;SDS011;38038;45.922;13.604;2024-02-16T12:11:57;20.35;;;19.00;;
52023;SDS011;38038;45.922;13.604;2024-02-16T12:14:23;11.75;;;11.00;;
52023;SDS011;38038;45.922;13.604;2024-02-16T12:16:50;12.83;;;12.03;;
52023;SDS011;38038;45.922;13.604;2024-02-16T12:19:20;12.43;;;11.45;;
52023;SDS011;38038;45.922;13.604;2024-02-16T12:21:55;13.60;;;12.60;;
52023;SDS011;38038;45.922;13.604;2024-02-16T12:24:22;11.52;;;10.73;;
52023;SDS011;38038;45.922;13.604;2024-02-16T12:26:48;11.03;;;10.33;;
52023;SDS011;38038;45.922;13.604;2024-02-16T12:29:14;10.47;;;9.80;;
52023;SDS011;38038;45.922;13.604;2024-02-16T12:31:41;10.43;;;9.73;;
52023;SDS011;38038;45.922;13.604;2024-02-16T12:34:09;9.77;;;9.07;;
52023;SDS011;38038;45.922;13.604;2024-02-16T12:36:36;9.88;;;9.18;;
52023;SDS011;38038;45.922;13.604;2024-02-16T12:39:03;10.75;;;9.68;;
52023;SDS011;38038;45.922;13.604;2024-02-16T12:41:29;9.98;;;9.27;;
52023;SDS011;38038;45.922;13.604;2024-02-16T12:43:56;10.30;;;9.60;;
52023;SDS011;38038;45.922;13.604;2024-02-16T12:46:21;10.25;;;9.45;;
52023;SDS011;38038;45.922;13.604;2024-02-16T12:48:47;10.82;;;10.02;;
52023;SDS011;38038;45.922;13.604;2024-02-16T12:51:13;10.50;;;9.70;;
52023;SDS011;38038;45.922;13.604;2024-02-16T12:53:39;12.00;;;11.00;;
52023;SDS011;38038;45.922;13.604;2024-02-16T12:56:08;10.70;;;9.80;;
52023;SDS011;38038;45.922;13.604;2024-02-16T12:58:38;10.07;;;9.33;;
52023;SDS011;38038;45.922;13.604;2024-02-16T13:01:04;10.45;;;9.65;;
52023;SDS011;38038;45.922;13.604;2024-02-16T13:03:33;10.00;;;9.20;;
52023;SDS011;38038;45.922;13.604;2024-02-16T13:05:59;11.90;;;10.67;;
52023;SDS011;38038;45.922;13.604;2024-02-16T13:08:26;9.65;;;8.85;;
52023;SDS011;38038;45.922;13.604;2024-02-16T13:10:51;11.00;;;10.10;;
52023;SDS011;38038;45.922;13.604;2024-02-16T13:13:17;11.10;;;10.30;;
52023;SDS011;38038;45.922;13.604;2024-02-16T13:15:43;10.57;;;9.77;;
52023;SDS011;38038;45.922;13.604;2024-02-16T13:18:09;10.98;;;9.98;;
52023;SDS011;38038;45.922;13.604;2024-02-16T13:20:34;10.93;;;10.03;;
52023;SDS011;38038;45.922;13.604;2024-02-16T13:23:00;10.93;;;10.03;;
52023;SDS011;38038;45.922;13.604;2024-02-16T13:25:26;10.98;;;10.18;;
52023;SDS011;38038;45.922;13.604;2024-02-16T13:27:52;10.15;;;9.35;;
52023;SDS011;38038;45.922;13.604;2024-02-16T13:30:18;10.68;;;9.88;;
52023;SDS011;38038;45.922;13.604;2024-02-16T13:32:44;12.07;;;11.17;;
52023;SDS011;38038;45.922;13.604;2024-02-16T13:35:09;11.45;;;10.55;;
52023;SDS011;38038;45.922;13.604;2024-02-16T13:37:35;12.48;;;11.57;;
52023;SDS011;38038;45.922;13.604;2024-02-16T13:40:02;12.13;;;11.32;;
52023;SDS011;38038;45.922;13.604;2024-02-16T13:42:35;11.80;;;10.60;;
52023;SDS011;38038;45.922;13.604;2024-02-16T13:45:01;12.23;;;11.23;;
52023;SDS011;38038;45.922;13.604;2024-02-16T13:47:27;12.73;;;11.65;;
52023;SDS011;38038;45.922;13.604;2024-02-16T13:49:53;12.93;;;11.82;;
52023;SDS011;38038;45.922;13.604;2024-02-16T13:52:21;15.73;;;14.47;;
52023;SDS011;38038;45.922;13.604;2024-02-16T13:54:47;12.40;;;11.50;;
52023;SDS011;38038;45.922;13.604;2024-02-16T13:57:13;13.43;;;12.23;;
52023;SDS011;38038;45.922;13.604;2024-02-16T13:59:39;13.55;;;12.45;;
52023;SDS011;38038;45.922;13.604;2024-02-16T14:02:06;12.35;;;11.45;;
52023;SDS011;38038;45.922;13.604;2024-02-16T14:04:32;12.37;;;11.47;;
52023;SDS011;38038;45.922;13.604;2024-02-16T14:06:58;13.77;;;12.45;;
52023;SDS011;38038;45.922;13.604;2024-02-16T14:09:24;12.37;;;11.47;;
52023;SDS011;38038;45.922;13.604;2024-02-16T14:11:51;13.27;;;12.20;;
52023;SDS011;38038;45.922;13.604;2024-02-16T14:14:18;13.02;;;11.98;;